sensor_id;sensor_type;location;lat;lon;timestamp;P1;durP1;ratioP1;P2;durP2;ratioP2
37085;SDS011;23001;45.952;12.676;2023-09-19T00:01:34;15.90;;;14.30;;
37085;SDS011;23001;45.952;12.676;2023-09-19T00:04:00;16.42;;;14.68;;
37085;SDS011;23001;45.952;12.676;2023-09-19T00:06:30;15.40;;;13.88;;
37085;SDS011;23001;45.952;12.676;2023-09-19T00:08:57;15.95;;;13.80;;
37085;SDS011;23001;45.952;12.676;2023-09-19T00:11:26;16.10;;;13.30;;
37085;SDS011;23001;45.952;12.676;2023-09-19T00:13:52;14.23;;;12.82;;
37085;SDS011;23001;45.952;12.676;2023-09-19T00:16:18;16.27;;;13.27;;
37085;SDS011;23001;45.952;12.676;2023-09-19T00:18:44;16.20;;;13.57;;
37085;SDS011;23001;45.952;12.676;2023-09-19T00:21:10;17.15;;;13.73;;
37085;SDS011;23001;45.952;12.676;2023-09-19T00:23:36;17.60;;;14.27;;
37085;SDS011;23001;45.952;12.676;2023-09-19T00:26:02;17.08;;;14.75;;
37085;SDS011;23001;45.952;12.676;2023-09-19T00:28:29;15.07;;;13.45;;
37085;SDS011;23001;45.952;12.676;2023-09-19T00:30:55;14.95;;;13.38;;
37085;SDS011;23001;45.952;12.676;2023-09-19T00:33:21;15.27;;;12.38;;
37085;SDS011;23001;45.952;12.676;2023-09-19T00:35:56;14.68;;;13.13;;
37085;SDS011;23001;45.952;12.676;2023-09-19T00:38:22;15.10;;;13.55;;
37085;SDS011;23001;45.952;12.676;2023-09-19T00:40:52;15.95;;;12.60;;
37085;SDS011;23001;45.952;12.676;2023-09-19T00:43:19;14.93;;;12.95;;
37085;SDS011;23001;45.952;12.676;2023-09-19T00:45:46;14.75;;;13.20;;
37085;SDS011;23001;45.952;12.676;2023-09-19T00:48:16;15.15;;;13.65;;
37085;SDS011;23001;45.952;12.676;2023-09-19T00:50:45;15.88;;;13.63;;
37085;SDS011;23001;45.952;12.676;2023-09-19T00:53:13;16.52;;;13.38;;
37085;SDS011;23001;45.952;12.676;2023-09-19T00:55:40;14.52;;;13.00;;
37085;SDS011;23001;45.952;12.676;2023-09-19T00:58:08;19.45;;;13.93;;
37085;SDS011;23001;45.952;12.676;2023-09-19T01:00:35;15.27;;;13.65;;
37085;SDS011;23001;45.952;12.676;2023-09-19T01:03:01;17.00;;;14.77;;
37085;SDS011;23001;45.952;12.676;2023-09-19T01:05:28;15.80;;;14.27;;
37085;SDS011;23001;45.952;12.676;2023-09-19T01:07:54;17.20;;;13.40;;
37085;SDS011;23001;45.952;12.676;2023-09-19T01:10:20;15.88;;;13.27;;
37085;SDS011;23001;45.952;12.676;2023-09-19T01:13:09;16.45;;;13.50;;
37085;SDS011;23001;45.952;12.676;2023-09-19T01:15:59;17.08;;;13.43;;
37085;SDS011;23001;45.952;12.676;2023-09-19T01:18:43;15.15;;;13.63;;
37085;SDS011;23001;45.952;12.676;2023-09-19T01:32:01;15.13;;;13.57;;
37085;SDS011;23001;45.952;12.676;2023-09-19T01:37:12;15.48;;;13.75;;
37085;SDS011;23001;45.952;12.676;2023-09-19T01:39:39;17.60;;;14.10;;
37085;SDS011;23001;45.952;12.676;2023-09-19T01:44:53;16.60;;;14.05;;
37085;SDS011;23001;45.952;12.676;2023-09-19T01:47:28;15.00;;;13.57;;
37085;SDS011;23001;45.952;12.676;2023-09-19T01:50:29;18.15;;;13.75;;
37085;SDS011;23001;45.952;12.676;2023-09-19T01:53:07;16.30;;;13.55;;
37085;SDS011;23001;45.952;12.676;2023-09-19T02:00:48;15.35;;;12.65;;
37085;SDS011;23001;45.952;12.676;2023-09-19T02:03:17;15.27;;;12.82;;
37085;SDS011;23001;45.952;12.676;2023-09-19T02:05:50;17.77;;;14.05;;
37085;SDS011;23001;45.952;12.676;2023-09-19T02:08:18;17.60;;;14.02;;
37085;SDS011;23001;45.952;12.676;2023-09-19T02:10:45;19.35;;;15.10;;
37085;SDS011;23001;45.952;12.676;2023-09-19T02:13:17;17.35;;;14.15;;
37085;SDS011;23001;45.952;12.676;2023-09-19T02:15:44;18.13;;;13.90;;
37085;SDS011;23001;45.952;12.676;2023-09-19T02:18:11;18.42;;;13.95;;
37085;SDS011;23001;45.952;12.676;2023-09-19T02:20:40;20.75;;;14.00;;
37085;SDS011;23001;45.952;12.676;2023-09-19T02:23:06;16.05;;;14.13;;
37085;SDS011;23001;45.952;12.676;2023-09-19T02:25:33;18.02;;;14.68;;
37085;SDS011;23001;45.952;12.676;2023-09-19T02:28:00;17.60;;;13.82;;
37085;SDS011;23001;45.952;12.676;2023-09-19T02:30:27;17.48;;;13.25;;
37085;SDS011;23001;45.952;12.676;2023-09-19T02:32:54;16.58;;;14.10;;
37085;SDS011;23001;45.952;12.676;2023-09-19T02:35:20;16.58;;;12.93;;
37085;SDS011;23001;45.952;12.676;2023-09-19T02:37:46;16.48;;;13.38;;
37085;SDS011;23001;45.952;12.676;2023-09-19T02:40:12;15.52;;;13.43;;
37085;SDS011;23001;45.952;12.676;2023-09-19T02:42:48;16.63;;;13.38;;
37085;SDS011;23001;45.952;12.676;2023-09-19T02:45:18;18.10;;;13.85;;
37085;SDS011;23001;45.952;12.676;2023-09-19T02:47:44;14.90;;;13.40;;
37085;SDS011;23001;45.952;12.676;2023-09-19T02:50:11;15.18;;;13.57;;
37085;SDS011;23001;45.952;12.676;2023-09-19T02:52:38;16.08;;;12.63;;
37085;SDS011;23001;45.952;12.676;2023-09-19T02:55:08;16.33;;;13.15;;
37085;SDS011;23001;45.952;12.676;2023-09-19T02:57:35;16.55;;;13.00;;
37085;SDS011;23001;45.952;12.676;2023-09-19T03:00:06;16.27;;;13.05;;
37085;SDS011;23001;45.952;12.676;2023-09-19T03:02:35;19.05;;;13.02;;
37085;SDS011;23001;45.952;12.676;2023-09-19T03:05:09;18.00;;;12.40;;
37085;SDS011;23001;45.952;12.676;2023-09-19T03:07:36;20.55;;;13.25;;
37085;SDS011;23001;45.952;12.676;2023-09-19T03:10:03;13.80;;;12.02;;
37085;SDS011;23001;45.952;12.676;2023-09-19T03:12:32;16.38;;;12.82;;
37085;SDS011;23001;45.952;12.676;2023-09-19T03:14:59;20.85;;;13.45;;
37085;SDS011;23001;45.952;12.676;2023-09-19T03:17:25;15.63;;;12.60;;
37085;SDS011;23001;45.952;12.676;2023-09-19T03:19:54;13.57;;;12.15;;
37085;SDS011;23001;45.952;12.676;2023-09-19T03:22:22;16.67;;;12.40;;
37085;SDS011;23001;45.952;12.676;2023-09-19T03:24:50;19.63;;;12.65;;
37085;SDS011;23001;45.952;12.676;2023-09-19T03:27:16;19.17;;;14.05;;
37085;SDS011;23001;45.952;12.676;2023-09-19T03:29:42;14.63;;;13.13;;
37085;SDS011;23001;45.952;12.676;2023-09-19T03:32:08;14.50;;;12.68;;
37085;SDS011;23001;45.952;12.676;2023-09-19T03:34:37;18.40;;;13.63;;
37085;SDS011;23001;45.952;12.676;2023-09-19T03:37:08;15.30;;;13.38;;
37085;SDS011;23001;45.952;12.676;2023-09-19T03:39:35;19.52;;;13.85;;
37085;SDS011;23001;45.952;12.676;2023-09-19T03:42:01;15.32;;;13.50;;
37085;SDS011;23001;45.952;12.676;2023-09-19T03:44:32;18.88;;;12.32;;
37085;SDS011;23001;45.952;12.676;2023-09-19T03:46:58;17.00;;;13.10;;
37085;SDS011;23001;45.952;12.676;2023-09-19T03:49:24;17.00;;;13.05;;
37085;SDS011;23001;45.952;12.676;2023-09-19T03:51:49;17.13;;;13.40;;
37085;SDS011;23001;45.952;12.676;2023-09-19T03:54:15;16.70;;;13.13;;
37085;SDS011;23001;45.952;12.676;2023-09-19T03:56:44;19.95;;;13.88;;
37085;SDS011;23001;45.952;12.676;2023-09-19T03:59:10;16.90;;;13.00;;
37085;SDS011;23001;45.952;12.676;2023-09-19T04:01:37;18.27;;;13.10;;
37085;SDS011;23001;45.952;12.676;2023-09-19T04:04:04;14.88;;;13.32;;
37085;SDS011;23001;45.952;12.676;2023-09-19T04:06:35;20.23;;;13.90;;
37085;SDS011;23001;45.952;12.676;2023-09-19T04:09:02;19.25;;;13.38;;
37085;SDS011;23001;45.952;12.676;2023-09-19T04:11:29;17.33;;;14.20;;
37085;SDS011;23001;45.952;12.676;2023-09-19T04:13:55;20.83;;;14.07;;
37085;SDS011;23001;45.952;12.676;2023-09-19T04:16:22;16.40;;;13.88;;
37085;SDS011;23001;45.952;12.676;2023-09-19T04:18:47;15.52;;;13.43;;
37085;SDS011;23001;45.952;12.676;2023-09-19T04:21:13;18.15;;;14.13;;
37085;SDS011;23001;45.952;12.676;2023-09-19T04:23:39;17.58;;;13.75;;
37085;SDS011;23001;45.952;12.676;2023-09-19T04:26:04;15.15;;;13.45;;
37085;SDS011;23001;45.952;12.676;2023-09-19T04:28:31;17.83;;;14.65;;
37085;SDS011;23001;45.952;12.676;2023-09-19T04:30:59;20.65;;;13.73;;
37085;SDS011;23001;45.952;12.676;2023-09-19T04:33:27;17.45;;;14.13;;
37085;SDS011;23001;45.952;12.676;2023-09-19T04:35:53;17.10;;;14.13;;
37085;SDS011;23001;45.952;12.676;2023-09-19T04:38:19;18.20;;;13.77;;
37085;SDS011;23001;45.952;12.676;2023-09-19T04:40:45;15.60;;;12.93;;
37085;SDS011;23001;45.952;12.676;2023-09-19T04:43:11;15.32;;;13.10;;
37085;SDS011;23001;45.952;12.676;2023-09-19T04:45:38;17.38;;;14.38;;
37085;SDS011;23001;45.952;12.676;2023-09-19T04:48:05;16.35;;;12.90;;
37085;SDS011;23001;45.952;12.676;2023-09-19T04:50:34;16.10;;;13.10;;
37085;SDS011;23001;45.952;12.676;2023-09-19T04:53:00;14.57;;;12.73;;
37085;SDS011;23001;45.952;12.676;2023-09-19T04:55:26;15.07;;;12.98;;
37085;SDS011;23001;45.952;12.676;2023-09-19T04:57:52;16.08;;;12.13;;
37085;SDS011;23001;45.952;12.676;2023-09-19T05:00:22;14.80;;;13.25;;
37085;SDS011;23001;45.952;12.676;2023-09-19T05:02:53;14.63;;;12.75;;
37085;SDS011;23001;45.952;12.676;2023-09-19T05:05:23;14.80;;;12.27;;
37085;SDS011;23001;45.952;12.676;2023-09-19T05:07:50;14.65;;;12.32;;
37085;SDS011;23001;45.952;12.676;2023-09-19T05:10:19;15.02;;;11.73;;
37085;SDS011;23001;45.952;12.676;2023-09-19T05:12:45;14.43;;;11.57;;
37085;SDS011;23001;45.952;12.676;2023-09-19T05:15:13;15.30;;;11.57;;
37085;SDS011;23001;45.952;12.676;2023-09-19T05:17:47;12.85;;;10.98;;
37085;SDS011;23001;45.952;12.676;2023-09-19T05:20:46;13.50;;;10.65;;
37085;SDS011;23001;45.952;12.676;2023-09-19T05:23:12;12.05;;;10.30;;
37085;SDS011;23001;45.952;12.676;2023-09-19T05:25:38;12.50;;;10.73;;
37085;SDS011;23001;45.952;12.676;2023-09-19T05:28:06;12.77;;;11.20;;
37085;SDS011;23001;45.952;12.676;2023-09-19T05:30:32;14.52;;;10.88;;
37085;SDS011;23001;45.952;12.676;2023-09-19T05:32:58;18.48;;;11.13;;
37085;SDS011;23001;45.952;12.676;2023-09-19T05:35:24;12.15;;;9.65;;
37085;SDS011;23001;45.952;12.676;2023-09-19T05:37:51;11.02;;;9.07;;
37085;SDS011;23001;45.952;12.676;2023-09-19T05:40:18;11.00;;;9.35;;
37085;SDS011;23001;45.952;12.676;2023-09-19T05:42:45;10.85;;;8.70;;
37085;SDS011;23001;45.952;12.676;2023-09-19T05:45:11;14.38;;;8.18;;
37085;SDS011;23001;45.952;12.676;2023-09-19T05:47:48;10.40;;;8.98;;
37085;SDS011;23001;45.952;12.676;2023-09-19T05:50:16;10.93;;;8.65;;
37085;SDS011;23001;45.952;12.676;2023-09-19T05:52:43;13.65;;;9.10;;
37085;SDS011;23001;45.952;12.676;2023-09-19T05:55:17;10.10;;;8.77;;
37085;SDS011;23001;45.952;12.676;2023-09-19T05:57:43;12.68;;;9.13;;
37085;SDS011;23001;45.952;12.676;2023-09-19T06:00:17;13.02;;;8.85;;
37085;SDS011;23001;45.952;12.676;2023-09-19T06:02:51;15.67;;;8.53;;
37085;SDS011;23001;45.952;12.676;2023-09-19T06:05:24;11.73;;;8.57;;
37085;SDS011;23001;45.952;12.676;2023-09-19T06:07:53;10.90;;;9.00;;
37085;SDS011;23001;45.952;12.676;2023-09-19T06:10:19;11.80;;;8.30;;
37085;SDS011;23001;45.952;12.676;2023-09-19T06:12:48;13.13;;;8.27;;
37085;SDS011;23001;45.952;12.676;2023-09-19T06:15:20;12.20;;;8.70;;
37085;SDS011;23001;45.952;12.676;2023-09-19T06:17:49;15.65;;;9.27;;
37085;SDS011;23001;45.952;12.676;2023-09-19T06:20:16;13.68;;;7.97;;
37085;SDS011;23001;45.952;12.676;2023-09-19T06:22:42;16.08;;;7.97;;
37085;SDS011;23001;45.952;12.676;2023-09-19T06:25:09;9.82;;;7.50;;
37085;SDS011;23001;45.952;12.676;2023-09-19T06:39:53;11.05;;;6.65;;
37085;SDS011;23001;45.952;12.676;2023-09-19T06:42:19;9.40;;;6.45;;
37085;SDS011;23001;45.952;12.676;2023-09-19T06:44:45;10.98;;;6.35;;
37085;SDS011;23001;45.952;12.676;2023-09-19T06:47:11;12.13;;;7.20;;
37085;SDS011;23001;45.952;12.676;2023-09-19T06:49:36;9.77;;;5.80;;
37085;SDS011;23001;45.952;12.676;2023-09-19T06:52:14;10.77;;;5.15;;
37085;SDS011;23001;45.952;12.676;2023-09-19T06:54:40;9.75;;;5.78;;
37085;SDS011;23001;45.952;12.676;2023-09-19T06:57:06;10.60;;;5.65;;
37085;SDS011;23001;45.952;12.676;2023-09-19T06:59:34;10.45;;;5.57;;
37085;SDS011;23001;45.952;12.676;2023-09-19T07:02:02;7.40;;;4.63;;
37085;SDS011;23001;45.952;12.676;2023-09-19T07:04:31;7.43;;;4.32;;
37085;SDS011;23001;45.952;12.676;2023-09-19T07:06:57;8.70;;;4.85;;
37085;SDS011;23001;45.952;12.676;2023-09-19T07:09:23;6.68;;;4.70;;
37085;SDS011;23001;45.952;12.676;2023-09-19T07:11:55;7.30;;;4.00;;
37085;SDS011;23001;45.952;12.676;2023-09-19T07:14:29;6.93;;;4.57;;
37085;SDS011;23001;45.952;12.676;2023-09-19T07:16:55;10.43;;;4.18;;
37085;SDS011;23001;45.952;12.676;2023-09-19T07:19:21;9.02;;;3.95;;
37085;SDS011;23001;45.952;12.676;2023-09-19T07:21:50;8.95;;;3.97;;
37085;SDS011;23001;45.952;12.676;2023-09-19T07:24:16;10.43;;;4.22;;
37085;SDS011;23001;45.952;12.676;2023-09-19T07:26:44;8.48;;;4.72;;
37085;SDS011;23001;45.952;12.676;2023-09-19T07:29:10;8.50;;;4.60;;
37085;SDS011;23001;45.952;12.676;2023-09-19T07:31:36;7.47;;;3.97;;
37085;SDS011;23001;45.952;12.676;2023-09-19T07:34:02;9.38;;;4.63;;
37085;SDS011;23001;45.952;12.676;2023-09-19T07:36:29;7.82;;;4.28;;
37085;SDS011;23001;45.952;12.676;2023-09-19T07:38:55;6.85;;;4.35;;
37085;SDS011;23001;45.952;12.676;2023-09-19T07:41:23;14.13;;;4.22;;
37085;SDS011;23001;45.952;12.676;2023-09-19T07:44:08;11.68;;;4.95;;
37085;SDS011;23001;45.952;12.676;2023-09-19T07:46:37;10.35;;;4.53;;
37085;SDS011;23001;45.952;12.676;2023-09-19T07:49:03;11.85;;;4.93;;
37085;SDS011;23001;45.952;12.676;2023-09-19T07:51:30;8.90;;;4.05;;
37085;SDS011;23001;45.952;12.676;2023-09-19T07:53:58;13.95;;;4.35;;
37085;SDS011;23001;45.952;12.676;2023-09-19T07:56:24;10.27;;;4.53;;
37085;SDS011;23001;45.952;12.676;2023-09-19T07:58:52;8.23;;;4.50;;
37085;SDS011;23001;45.952;12.676;2023-09-19T08:01:18;8.98;;;4.70;;
37085;SDS011;23001;45.952;12.676;2023-09-19T08:03:43;10.60;;;4.35;;
37085;SDS011;23001;45.952;12.676;2023-09-19T08:06:12;11.52;;;4.38;;
37085;SDS011;23001;45.952;12.676;2023-09-19T08:08:50;15.20;;;4.15;;
37085;SDS011;23001;45.952;12.676;2023-09-19T08:11:20;13.77;;;4.70;;
37085;SDS011;23001;45.952;12.676;2023-09-19T08:13:46;9.30;;;4.38;;
37085;SDS011;23001;45.952;12.676;2023-09-19T08:16:14;8.55;;;4.45;;
37085;SDS011;23001;45.952;12.676;2023-09-19T08:21:49;9.98;;;3.90;;
37085;SDS011;23001;45.952;12.676;2023-09-19T08:24:26;9.57;;;3.63;;
37085;SDS011;23001;45.952;12.676;2023-09-19T08:26:57;14.20;;;4.50;;
37085;SDS011;23001;45.952;12.676;2023-09-19T08:29:23;14.27;;;5.22;;
37085;SDS011;23001;45.952;12.676;2023-09-19T08:31:55;10.05;;;4.50;;
37085;SDS011;23001;45.952;12.676;2023-09-19T08:34:25;10.93;;;4.75;;
37085;SDS011;23001;45.952;12.676;2023-09-19T08:36:58;8.50;;;4.18;;
37085;SDS011;23001;45.952;12.676;2023-09-19T08:39:24;10.77;;;4.45;;
37085;SDS011;23001;45.952;12.676;2023-09-19T08:41:59;9.55;;;4.60;;
37085;SDS011;23001;45.952;12.676;2023-09-19T08:44:36;14.70;;;4.57;;
37085;SDS011;23001;45.952;12.676;2023-09-19T08:47:09;11.18;;;4.80;;
37085;SDS011;23001;45.952;12.676;2023-09-19T08:49:41;11.77;;;4.82;;
37085;SDS011;23001;45.952;12.676;2023-09-19T08:52:42;13.00;;;4.70;;
37085;SDS011;23001;45.952;12.676;2023-09-19T08:55:12;16.30;;;5.45;;
37085;SDS011;23001;45.952;12.676;2023-09-19T08:57:45;14.75;;;4.47;;
37085;SDS011;23001;45.952;12.676;2023-09-19T09:00:14;13.20;;;4.78;;
37085;SDS011;23001;45.952;12.676;2023-09-19T09:02:52;17.08;;;4.88;;
37085;SDS011;23001;45.952;12.676;2023-09-19T09:05:23;11.30;;;4.45;;
37085;SDS011;23001;45.952;12.676;2023-09-19T09:07:51;15.93;;;5.20;;
37085;SDS011;23001;45.952;12.676;2023-09-19T09:10:20;16.00;;;6.63;;
37085;SDS011;23001;45.952;12.676;2023-09-19T09:13:15;17.90;;;6.50;;
37085;SDS011;23001;45.952;12.676;2023-09-19T09:15:47;21.92;;;7.32;;
37085;SDS011;23001;45.952;12.676;2023-09-19T09:18:16;20.83;;;6.20;;
37085;SDS011;23001;45.952;12.676;2023-09-19T09:20:43;17.75;;;6.65;;
37085;SDS011;23001;45.952;12.676;2023-09-19T09:23:16;15.70;;;5.72;;
37085;SDS011;23001;45.952;12.676;2023-09-19T09:25:48;14.50;;;6.40;;
37085;SDS011;23001;45.952;12.676;2023-09-19T09:28:20;18.40;;;5.95;;
37085;SDS011;23001;45.952;12.676;2023-09-19T09:30:47;14.00;;;5.20;;
37085;SDS011;23001;45.952;12.676;2023-09-19T09:33:13;19.20;;;5.85;;
37085;SDS011;23001;45.952;12.676;2023-09-19T09:38:29;31.75;;;9.35;;
37085;SDS011;23001;45.952;12.676;2023-09-19T09:41:12;22.65;;;8.10;;
37085;SDS011;23001;45.952;12.676;2023-09-19T09:43:41;25.95;;;6.78;;
37085;SDS011;23001;45.952;12.676;2023-09-19T10:00:52;11.95;;;5.30;;
37085;SDS011;23001;45.952;12.676;2023-09-19T10:03:51;19.58;;;6.40;;
37085;SDS011;23001;45.952;12.676;2023-09-19T10:06:25;16.48;;;6.72;;
37085;SDS011;23001;45.952;12.676;2023-09-19T10:09:02;20.35;;;6.57;;
37085;SDS011;23001;45.952;12.676;2023-09-19T10:15:28;18.27;;;5.57;;
37085;SDS011;23001;45.952;12.676;2023-09-19T10:18:12;14.73;;;5.78;;
37085;SDS011;23001;45.952;12.676;2023-09-19T10:21:10;16.35;;;6.45;;
37085;SDS011;23001;45.952;12.676;2023-09-19T10:24:09;13.73;;;4.78;;
37085;SDS011;23001;45.952;12.676;2023-09-19T10:33:41;15.45;;;5.72;;
37085;SDS011;23001;45.952;12.676;2023-09-19T10:36:46;19.08;;;5.40;;
37085;SDS011;23001;45.952;12.676;2023-09-19T10:45:37;17.35;;;5.53;;
37085;SDS011;23001;45.952;12.676;2023-09-19T10:48:25;17.48;;;4.85;;
37085;SDS011;23001;45.952;12.676;2023-09-19T10:55:05;14.65;;;5.25;;
37085;SDS011;23001;45.952;12.676;2023-09-19T11:22:13;16.58;;;5.75;;
37085;SDS011;23001;45.952;12.676;2023-09-19T11:54:54;20.38;;;5.10;;
37085;SDS011;23001;45.952;12.676;2023-09-19T11:57:49;13.50;;;5.03;;
37085;SDS011;23001;45.952;12.676;2023-09-19T12:00:43;13.20;;;5.18;;
37085;SDS011;23001;45.952;12.676;2023-09-19T12:03:29;14.60;;;4.88;;
37085;SDS011;23001;45.952;12.676;2023-09-19T12:12:34;16.73;;;5.10;;
37085;SDS011;23001;45.952;12.676;2023-09-19T12:26:09;11.27;;;3.97;;
37085;SDS011;23001;45.952;12.676;2023-09-19T12:43:24;13.02;;;4.05;;
37085;SDS011;23001;45.952;12.676;2023-09-19T12:45:55;12.35;;;4.43;;
37085;SDS011;23001;45.952;12.676;2023-09-19T12:55:57;11.43;;;3.58;;
37085;SDS011;23001;45.952;12.676;2023-09-19T12:58:31;9.52;;;3.70;;
37085;SDS011;23001;45.952;12.676;2023-09-19T13:01:00;6.90;;;3.10;;
37085;SDS011;23001;45.952;12.676;2023-09-19T13:06:57;13.85;;;4.57;;
37085;SDS011;23001;45.952;12.676;2023-09-19T13:10:06;10.20;;;3.08;;
37085;SDS011;23001;45.952;12.676;2023-09-19T13:12:37;8.65;;;3.20;;
37085;SDS011;23001;45.952;12.676;2023-09-19T13:15:09;8.45;;;3.40;;
37085;SDS011;23001;45.952;12.676;2023-09-19T13:17:45;12.20;;;3.20;;
37085;SDS011;23001;45.952;12.676;2023-09-19T13:20:23;7.03;;;2.42;;
37085;SDS011;23001;45.952;12.676;2023-09-19T13:22:57;10.23;;;3.03;;
37085;SDS011;23001;45.952;12.676;2023-09-19T13:25:33;10.10;;;3.13;;
37085;SDS011;23001;45.952;12.676;2023-09-19T13:28:05;13.18;;;3.67;;
37085;SDS011;23001;45.952;12.676;2023-09-19T13:30:33;7.10;;;3.00;;
37085;SDS011;23001;45.952;12.676;2023-09-19T13:33:10;10.80;;;3.25;;
37085;SDS011;23001;45.952;12.676;2023-09-19T13:35:41;5.82;;;2.03;;
37085;SDS011;23001;45.952;12.676;2023-09-19T13:48:01;6.20;;;1.70;;
37085;SDS011;23001;45.952;12.676;2023-09-19T14:05:16;5.22;;;2.38;;
37085;SDS011;23001;45.952;12.676;2023-09-19T14:07:51;7.13;;;2.25;;
37085;SDS011;23001;45.952;12.676;2023-09-19T14:14:18;7.03;;;2.58;;
37085;SDS011;23001;45.952;12.676;2023-09-19T14:17:31;6.75;;;2.20;;
37085;SDS011;23001;45.952;12.676;2023-09-19T14:20:06;5.03;;;2.47;;
37085;SDS011;23001;45.952;12.676;2023-09-19T14:26:50;9.48;;;2.58;;
37085;SDS011;23001;45.952;12.676;2023-09-19T14:29:49;9.60;;;2.50;;
37085;SDS011;23001;45.952;12.676;2023-09-19T14:32:20;9.40;;;2.63;;
37085;SDS011;23001;45.952;12.676;2023-09-19T14:34:47;7.70;;;2.38;;
37085;SDS011;23001;45.952;12.676;2023-09-19T14:37:13;7.35;;;2.50;;
37085;SDS011;23001;45.952;12.676;2023-09-19T14:39:40;9.00;;;2.75;;
37085;SDS011;23001;45.952;12.676;2023-09-19T14:42:14;8.95;;;2.53;;
37085;SDS011;23001;45.952;12.676;2023-09-19T14:45:43;5.75;;;2.50;;
37085;SDS011;23001;45.952;12.676;2023-09-19T14:48:55;6.72;;;2.40;;
37085;SDS011;23001;45.952;12.676;2023-09-19T14:51:59;7.70;;;2.20;;
37085;SDS011;23001;45.952;12.676;2023-09-19T14:58:27;7.85;;;2.78;;
37085;SDS011;23001;45.952;12.676;2023-09-19T15:01:08;5.72;;;2.67;;
37085;SDS011;23001;45.952;12.676;2023-09-19T15:11:11;8.10;;;2.67;;
37085;SDS011;23001;45.952;12.676;2023-09-19T15:18:54;6.25;;;2.53;;
37085;SDS011;23001;45.952;12.676;2023-09-19T15:35:24;8.98;;;2.03;;
37085;SDS011;23001;45.952;12.676;2023-09-19T15:38:29;4.68;;;2.15;;
37085;SDS011;23001;45.952;12.676;2023-09-19T15:41:08;7.40;;;2.58;;
37085;SDS011;23001;45.952;12.676;2023-09-19T15:44:31;5.57;;;2.60;;
37085;SDS011;23001;45.952;12.676;2023-09-19T16:02:29;8.45;;;2.20;;
37085;SDS011;23001;45.952;12.676;2023-09-19T16:05:33;8.18;;;1.95;;
37085;SDS011;23001;45.952;12.676;2023-09-19T16:08:16;7.43;;;2.30;;
37085;SDS011;23001;45.952;12.676;2023-09-19T16:10:55;6.50;;;2.55;;
37085;SDS011;23001;45.952;12.676;2023-09-19T16:13:26;7.07;;;2.10;;
37085;SDS011;23001;45.952;12.676;2023-09-19T16:15:55;4.80;;;1.70;;
37085;SDS011;23001;45.952;12.676;2023-09-19T16:18:58;8.85;;;2.15;;
37085;SDS011;23001;45.952;12.676;2023-09-19T16:22:07;3.75;;;1.85;;
37085;SDS011;23001;45.952;12.676;2023-09-19T16:43:00;6.38;;;1.80;;
37085;SDS011;23001;45.952;12.676;2023-09-19T16:49:26;4.65;;;2.30;;
37085;SDS011;23001;45.952;12.676;2023-09-19T16:52:01;10.95;;;2.20;;
37085;SDS011;23001;45.952;12.676;2023-09-19T16:54:31;4.40;;;1.75;;
37085;SDS011;23001;45.952;12.676;2023-09-19T16:57:02;7.55;;;1.70;;
37085;SDS011;23001;45.952;12.676;2023-09-19T16:59:29;5.70;;;1.70;;
37085;SDS011;23001;45.952;12.676;2023-09-19T17:02:03;7.30;;;1.88;;
37085;SDS011;23001;45.952;12.676;2023-09-19T17:04:32;5.00;;;1.70;;
37085;SDS011;23001;45.952;12.676;2023-09-19T17:07:05;8.45;;;1.80;;
37085;SDS011;23001;45.952;12.676;2023-09-19T17:09:59;10.48;;;2.72;;
37085;SDS011;23001;45.952;12.676;2023-09-19T17:16:18;5.50;;;1.95;;
37085;SDS011;23001;45.952;12.676;2023-09-19T17:19:00;6.97;;;1.90;;
37085;SDS011;23001;45.952;12.676;2023-09-19T17:21:29;4.75;;;1.70;;
37085;SDS011;23001;45.952;12.676;2023-09-19T17:23:57;6.03;;;1.38;;
37085;SDS011;23001;45.952;12.676;2023-09-19T17:26:23;4.60;;;1.67;;
37085;SDS011;23001;45.952;12.676;2023-09-19T17:28:53;6.78;;;1.63;;
37085;SDS011;23001;45.952;12.676;2023-09-19T17:31:23;10.15;;;2.25;;
37085;SDS011;23001;45.952;12.676;2023-09-19T17:33:55;6.63;;;1.92;;
37085;SDS011;23001;45.952;12.676;2023-09-19T17:36:26;3.45;;;1.52;;
37085;SDS011;23001;45.952;12.676;2023-09-19T17:39:00;3.72;;;1.50;;
37085;SDS011;23001;45.952;12.676;2023-09-19T17:41:39;6.40;;;1.73;;
37085;SDS011;23001;45.952;12.676;2023-09-19T17:44:37;4.88;;;1.73;;
37085;SDS011;23001;45.952;12.676;2023-09-19T17:47:10;5.35;;;1.83;;
37085;SDS011;23001;45.952;12.676;2023-09-19T17:49:47;9.63;;;2.17;;
37085;SDS011;23001;45.952;12.676;2023-09-19T18:13:13;5.55;;;1.65;;
37085;SDS011;23001;45.952;12.676;2023-09-19T18:44:27;5.25;;;1.80;;
37085;SDS011;23001;45.952;12.676;2023-09-19T19:04:32;4.70;;;1.75;;
37085;SDS011;23001;45.952;12.676;2023-09-19T19:10:31;7.82;;;2.47;;
37085;SDS011;23001;45.952;12.676;2023-09-19T19:13:35;3.75;;;1.70;;
37085;SDS011;23001;45.952;12.676;2023-09-19T19:16:53;3.20;;;1.38;;
37085;SDS011;23001;45.952;12.676;2023-09-19T19:20:18;3.40;;;1.95;;
37085;SDS011;23001;45.952;12.676;2023-09-19T19:23:41;3.40;;;1.80;;
37085;SDS011;23001;45.952;12.676;2023-09-19T19:29:25;6.20;;;2.15;;
37085;SDS011;23001;45.952;12.676;2023-09-19T19:35:16;4.57;;;1.85;;
37085;SDS011;23001;45.952;12.676;2023-09-19T19:38:17;4.72;;;2.33;;
37085;SDS011;23001;45.952;12.676;2023-09-19T19:41:16;6.13;;;2.30;;
37085;SDS011;23001;45.952;12.676;2023-09-19T19:46:34;4.97;;;2.50;;
37085;SDS011;23001;45.952;12.676;2023-09-19T19:52:28;5.72;;;2.63;;
37085;SDS011;23001;45.952;12.676;2023-09-19T19:55:08;5.45;;;2.03;;
37085;SDS011;23001;45.952;12.676;2023-09-19T19:57:55;4.10;;;2.10;;
37085;SDS011;23001;45.952;12.676;2023-09-19T20:03:12;7.15;;;2.22;;
37085;SDS011;23001;45.952;12.676;2023-09-19T20:05:52;7.07;;;2.10;;
37085;SDS011;23001;45.952;12.676;2023-09-19T20:14:29;7.10;;;2.13;;
37085;SDS011;23001;45.952;12.676;2023-09-19T20:17:05;6.45;;;1.85;;
37085;SDS011;23001;45.952;12.676;2023-09-19T20:19:53;5.70;;;2.17;;
37085;SDS011;23001;45.952;12.676;2023-09-19T20:22:27;6.38;;;2.25;;
37085;SDS011;23001;45.952;12.676;2023-09-19T20:28:13;5.50;;;2.38;;
37085;SDS011;23001;45.952;12.676;2023-09-19T20:33:15;6.53;;;2.38;;
37085;SDS011;23001;45.952;12.676;2023-09-19T20:36:38;4.05;;;2.30;;
37085;SDS011;23001;45.952;12.676;2023-09-19T20:39:38;3.45;;;2.15;;
37085;SDS011;23001;45.952;12.676;2023-09-19T20:43:08;6.68;;;2.25;;
37085;SDS011;23001;45.952;12.676;2023-09-19T20:49:24;4.93;;;1.65;;
37085;SDS011;23001;45.952;12.676;2023-09-19T20:55:33;5.93;;;1.90;;
37085;SDS011;23001;45.952;12.676;2023-09-19T20:58:05;3.00;;;1.90;;
37085;SDS011;23001;45.952;12.676;2023-09-19T21:00:56;4.82;;;2.38;;
37085;SDS011;23001;45.952;12.676;2023-09-19T21:04:31;3.80;;;1.83;;
37085;SDS011;23001;45.952;12.676;2023-09-19T21:06:57;4.93;;;2.00;;
37085;SDS011;23001;45.952;12.676;2023-09-19T21:22:13;2.90;;;1.58;;
37085;SDS011;23001;45.952;12.676;2023-09-19T21:25:23;5.35;;;3.17;;
37085;SDS011;23001;45.952;12.676;2023-09-19T21:39:36;4.55;;;1.85;;
37085;SDS011;23001;45.952;12.676;2023-09-19T21:46:03;5.65;;;2.10;;
37085;SDS011;23001;45.952;12.676;2023-09-19T21:56:24;6.75;;;1.63;;
37085;SDS011;23001;45.952;12.676;2023-09-19T21:59:31;3.05;;;1.95;;